South Lyme, Connecticut
Current Conditions -  °F | °C
As of 4:56 AM on Saturday 22 Nov 2014 (Local Time) from KGON Reporting Station
Clear Clear  
Wind Chill: 18°   Ceiling: Unl
Heat Index: 26°   Visibility: 9mi
Dew Point: 12°   Wind: 8mph
Humidity: 55%   Direction: 280°W
Pressure: 30.46"   Gusts: NA
Location:  41.31°N, 72.26°W
Report Text: KGON 220956Z AUTO 28007KT 9SM CLR M03/M11 A3046 RMK AO2 SLP314 T10331111
Loading
Personal Weather Stations






























Interactive Weather Map New forecast layout! Learn more

10-Day Weather Forecast

Advertisements
Track Severe Weather on mobile